sensor_id;sensor_type;location;lat;lon;timestamp;pressure;altitude;pressure_sealevel;temperature;humidity
69909;BME280;57190;47.918;8.112;2023-12-20T00:00:54;90816.59;;;4.01;76.98
69909;BME280;57190;47.918;8.112;2023-12-20T00:03:20;90836.34;;;3.98;77.33
69909;BME280;57190;47.918;8.112;2023-12-20T00:05:46;90827.25;;;4.06;76.55
69909;BME280;57190;47.918;8.112;2023-12-20T00:08:12;90828.63;;;4.08;77.18
69909;BME280;57190;47.918;8.112;2023-12-20T00:10:37;90831.28;;;4.08;76.86
69909;BME280;57190;47.918;8.112;2023-12-20T00:13:03;90818.31;;;4.07;77.46
69909;BME280;57190;47.918;8.112;2023-12-20T00:15:28;90825.09;;;4.15;77.64
69909;BME280;57190;47.918;8.112;2023-12-20T00:17:54;90821.19;;;4.17;77.66
69909;BME280;57190;47.918;8.112;2023-12-20T00:20:19;90831.41;;;4.25;77.59
69909;BME280;57190;47.918;8.112;2023-12-20T00:22:45;90824.97;;;4.21;77.84
69909;BME280;57190;47.918;8.112;2023-12-20T00:25:10;90817.75;;;4.17;78.70
69909;BME280;57190;47.918;8.112;2023-12-20T00:27:36;90810.84;;;4.16;79.36
69909;BME280;57190;47.918;8.112;2023-12-20T00:30:01;90811.31;;;4.13;79.94
69909;BME280;57190;47.918;8.112;2023-12-20T00:32:26;90817.63;;;4.12;80.86
69909;BME280;57190;47.918;8.112;2023-12-20T00:34:52;90817.63;;;4.12;80.34
69909;BME280;57190;47.918;8.112;2023-12-20T00:37:17;90818.44;;;4.12;79.94
69909;BME280;57190;47.918;8.112;2023-12-20T00:39:43;90803.66;;;4.11;80.25
69909;BME280;57190;47.918;8.112;2023-12-20T00:42:09;90802.25;;;4.08;81.04
69909;BME280;57190;47.918;8.112;2023-12-20T00:44:34;90816.25;;;4.09;80.65
69909;BME280;57190;47.918;8.112;2023-12-20T00:47:00;90814.66;;;4.08;81.61
69909;BME280;57190;47.918;8.112;2023-12-20T00:49:26;90813.97;;;4.13;82.00
69909;BME280;57190;47.918;8.112;2023-12-20T00:51:51;90806.28;;;4.11;82.88
69909;BME280;57190;47.918;8.112;2023-12-20T00:54:18;90796.06;;;4.15;82.80
69909;BME280;57190;47.918;8.112;2023-12-20T00:56:43;90802.72;;;4.05;84.11
69909;BME280;57190;47.918;8.112;2023-12-20T00:59:09;90780.44;;;4.01;84.70
69909;BME280;57190;47.918;8.112;2023-12-20T01:01:34;90780.00;;;4.04;85.04
69909;BME280;57190;47.918;8.112;2023-12-20T01:04:00;90787.31;;;4.02;85.03
69909;BME280;57190;47.918;8.112;2023-12-20T01:06:25;90781.13;;;4.08;84.39
69909;BME280;57190;47.918;8.112;2023-12-20T01:08:51;90779.31;;;4.09;84.84
69909;BME280;57190;47.918;8.112;2023-12-20T01:11:16;90769.53;;;4.09;85.53
69909;BME280;57190;47.918;8.112;2023-12-20T01:13:42;90760.81;;;4.09;85.14
69909;BME280;57190;47.918;8.112;2023-12-20T01:16:10;90764.38;;;4.15;85.64
69909;BME280;57190;47.918;8.112;2023-12-20T01:18:37;90784.44;;;4.16;85.85
69909;BME280;57190;47.918;8.112;2023-12-20T01:21:03;90763.31;;;4.16;86.34
69909;BME280;57190;47.918;8.112;2023-12-20T01:23:29;90762.78;;;4.14;86.07
69909;BME280;57190;47.918;8.112;2023-12-20T01:25:55;90764.38;;;4.15;86.22
69909;BME280;57190;47.918;8.112;2023-12-20T01:28:20;90767.22;;;4.13;86.60
69909;BME280;57190;47.918;8.112;2023-12-20T01:30:46;90771.72;;;4.13;86.13
69909;BME280;57190;47.918;8.112;2023-12-20T01:33:11;90776.09;;;4.07;86.13
69909;BME280;57190;47.918;8.112;2023-12-20T01:35:37;90774.47;;;4.06;85.92
69909;BME280;57190;47.918;8.112;2023-12-20T01:38:02;90784.00;;;4.07;85.86
69909;BME280;57190;47.918;8.112;2023-12-20T01:40:28;90784.94;;;4.01;86.18
69909;BME280;57190;47.918;8.112;2023-12-20T01:43:00;90794.44;;;4.02;85.80
69909;BME280;57190;47.918;8.112;2023-12-20T01:45:26;90796.16;;;3.96;85.25
69909;BME280;57190;47.918;8.112;2023-12-20T01:47:51;90805.13;;;3.95;85.36
69909;BME280;57190;47.918;8.112;2023-12-20T01:50:17;90798.56;;;3.86;85.41
69909;BME280;57190;47.918;8.112;2023-12-20T01:52:43;90812.00;;;3.84;85.18
69909;BME280;57190;47.918;8.112;2023-12-20T01:55:09;90803.25;;;3.84;84.85
69909;BME280;57190;47.918;8.112;2023-12-20T01:57:43;90807.03;;;3.76;85.15
69909;BME280;57190;47.918;8.112;2023-12-20T02:00:11;90824.94;;;3.74;84.67
69909;BME280;57190;47.918;8.112;2023-12-20T02:02:39;90820.34;;;3.69;85.23
69909;BME280;57190;47.918;8.112;2023-12-20T02:22:09;90821.97;;;3.40;84.90
69909;BME280;57190;47.918;8.112;2023-12-20T02:24:35;90815.09;;;3.39;85.67
69909;BME280;57190;47.918;8.112;2023-12-20T02:27:00;90810.63;;;3.39;85.58
69909;BME280;57190;47.918;8.112;2023-12-20T02:29:26;90803.41;;;3.35;85.10
69909;BME280;57190;47.918;8.112;2023-12-20T02:31:52;90802.13;;;3.37;85.37
69909;BME280;57190;47.918;8.112;2023-12-20T02:34:17;90801.56;;;3.35;85.02
69909;BME280;57190;47.918;8.112;2023-12-20T02:36:43;90787.22;;;3.31;85.30
69909;BME280;57190;47.918;8.112;2023-12-20T02:39:08;90790.53;;;3.26;85.32
69909;BME280;57190;47.918;8.112;2023-12-20T02:41:34;90792.66;;;3.18;84.87
69909;BME280;57190;47.918;8.112;2023-12-20T02:44:00;90794.81;;;3.09;85.60
69909;BME280;57190;47.918;8.112;2023-12-20T02:46:25;90795.97;;;3.13;85.50
69909;BME280;57190;47.918;8.112;2023-12-20T02:48:50;90799.28;;;3.08;85.53
69909;BME280;57190;47.918;8.112;2023-12-20T02:51:16;90797.66;;;3.07;85.45
69909;BME280;57190;47.918;8.112;2023-12-20T02:53:41;90800.66;;;3.11;85.20
69909;BME280;57190;47.918;8.112;2023-12-20T02:56:07;90804.13;;;3.11;84.48
69909;BME280;57190;47.918;8.112;2023-12-20T02:58:32;90796.44;;;3.10;84.74
69909;BME280;57190;47.918;8.112;2023-12-20T03:00:58;90801.66;;;2.98;85.35
69909;BME280;57190;47.918;8.112;2023-12-20T03:03:23;90801.06;;;2.96;85.05
69909;BME280;57190;47.918;8.112;2023-12-20T03:05:48;90794.63;;;2.92;84.12
69909;BME280;57190;47.918;8.112;2023-12-20T03:08:14;90793.00;;;2.91;84.72
69909;BME280;57190;47.918;8.112;2023-12-20T03:10:39;90793.38;;;2.94;84.87
69909;BME280;57190;47.918;8.112;2023-12-20T03:13:05;90792.56;;;2.94;84.55
69909;BME280;57190;47.918;8.112;2023-12-20T03:15:30;90800.47;;;2.94;84.81
69909;BME280;57190;47.918;8.112;2023-12-20T03:17:56;90805.53;;;2.95;83.79
69909;BME280;57190;47.918;8.112;2023-12-20T03:20:21;90807.09;;;2.85;84.30
69909;BME280;57190;47.918;8.112;2023-12-20T03:22:46;90814.19;;;2.84;83.64
69909;BME280;57190;47.918;8.112;2023-12-20T03:25:12;90810.38;;;2.80;83.77
69909;BME280;57190;47.918;8.112;2023-12-20T03:27:37;90806.94;;;2.79;84.00
69909;BME280;57190;47.918;8.112;2023-12-20T03:30:06;90811.94;;;2.69;83.81
69909;BME280;57190;47.918;8.112;2023-12-20T03:32:32;90815.00;;;2.66;83.60
69909;BME280;57190;47.918;8.112;2023-12-20T03:34:57;90816.53;;;2.55;83.65
69909;BME280;57190;47.918;8.112;2023-12-20T03:37:23;90826.28;;;2.55;84.25
69909;BME280;57190;47.918;8.112;2023-12-20T03:39:48;90826.47;;;2.53;83.93
69909;BME280;57190;47.918;8.112;2023-12-20T03:42:14;90827.00;;;2.43;84.02
69909;BME280;57190;47.918;8.112;2023-12-20T03:44:39;90830.94;;;2.34;83.71
69909;BME280;57190;47.918;8.112;2023-12-20T03:47:06;90829.31;;;2.33;83.66
69909;BME280;57190;47.918;8.112;2023-12-20T03:49:31;90823.75;;;2.23;84.44
69909;BME280;57190;47.918;8.112;2023-12-20T03:51:57;90827.44;;;2.22;84.25
69909;BME280;57190;47.918;8.112;2023-12-20T03:54:22;90827.63;;;2.20;84.10
69909;BME280;57190;47.918;8.112;2023-12-20T03:56:48;90835.59;;;2.13;84.26
69909;BME280;57190;47.918;8.112;2023-12-20T03:59:13;90831.19;;;2.07;84.05
69909;BME280;57190;47.918;8.112;2023-12-20T04:01:43;90831.63;;;2.04;84.14
69909;BME280;57190;47.918;8.112;2023-12-20T04:04:09;90830.03;;;2.03;84.00
69909;BME280;57190;47.918;8.112;2023-12-20T04:06:35;90833.53;;;1.97;84.28
69909;BME280;57190;47.918;8.112;2023-12-20T04:09:00;90837.75;;;1.98;83.51
69909;BME280;57190;47.918;8.112;2023-12-20T04:11:54;90843.88;;;1.92;83.88
69909;BME280;57190;47.918;8.112;2023-12-20T04:14:19;90841.69;;;1.88;84.34
69909;BME280;57190;47.918;8.112;2023-12-20T04:16:44;90846.34;;;1.86;84.13
69909;BME280;57190;47.918;8.112;2023-12-20T04:19:10;90844.75;;;1.85;84.07
69909;BME280;57190;47.918;8.112;2023-12-20T04:21:35;90845.53;;;1.86;83.66
69909;BME280;57190;47.918;8.112;2023-12-20T04:24:01;90845.22;;;1.76;84.78
69909;BME280;57190;47.918;8.112;2023-12-20T04:26:26;90835.34;;;1.71;84.23
69909;BME280;57190;47.918;8.112;2023-12-20T04:28:52;90846.50;;;1.66;84.99
69909;BME280;57190;47.918;8.112;2023-12-20T04:31:17;90849.53;;;1.70;84.44
69909;BME280;57190;47.918;8.112;2023-12-20T04:33:42;90841.63;;;1.70;84.40
69909;BME280;57190;47.918;8.112;2023-12-20T04:36:08;90855.19;;;1.67;84.52
69909;BME280;57190;47.918;8.112;2023-12-20T04:38:34;90859.81;;;1.71;84.36
69909;BME280;57190;47.918;8.112;2023-12-20T04:40:59;90859.81;;;1.71;84.38
69909;BME280;57190;47.918;8.112;2023-12-20T04:43:25;90859.81;;;1.71;84.33
69909;BME280;57190;47.918;8.112;2023-12-20T04:45:50;90859.81;;;1.71;84.33
69909;BME280;57190;47.918;8.112;2023-12-20T04:48:16;90865.72;;;1.67;84.35
69909;BME280;57190;47.918;8.112;2023-12-20T04:50:41;90869.72;;;1.69;84.93
69909;BME280;57190;47.918;8.112;2023-12-20T04:53:07;90865.06;;;1.71;84.44
69909;BME280;57190;47.918;8.112;2023-12-20T04:55:32;90864.06;;;1.72;84.28
69909;BME280;57190;47.918;8.112;2023-12-20T04:57:58;90859.22;;;1.69;85.07
69909;BME280;57190;47.918;8.112;2023-12-20T05:00:24;90868.72;;;1.70;84.86
69909;BME280;57190;47.918;8.112;2023-12-20T05:02:49;90861.09;;;1.62;85.25
69909;BME280;57190;47.918;8.112;2023-12-20T05:05:15;90856.22;;;1.66;85.03
69909;BME280;57190;47.918;8.112;2023-12-20T05:07:43;90864.91;;;1.66;85.25
69909;BME280;57190;47.918;8.112;2023-12-20T05:10:08;90869.56;;;1.64;85.37
69909;BME280;57190;47.918;8.112;2023-12-20T05:12:34;90872.81;;;1.66;85.63
69909;BME280;57190;47.918;8.112;2023-12-20T05:15:00;90865.72;;;1.67;85.99
69909;BME280;57190;47.918;8.112;2023-12-20T05:17:26;90865.91;;;1.72;85.27
69909;BME280;57190;47.918;8.112;2023-12-20T05:19:51;90874.34;;;1.74;86.22
69909;BME280;57190;47.918;8.112;2023-12-20T05:22:18;90876.16;;;1.80;86.05
69909;BME280;57190;47.918;8.112;2023-12-20T05:24:44;90882.81;;;1.83;86.33
69909;BME280;57190;47.918;8.112;2023-12-20T05:27:09;90871.47;;;1.82;86.54
69909;BME280;57190;47.918;8.112;2023-12-20T05:29:34;90869.66;;;1.83;86.98
69909;BME280;57190;47.918;8.112;2023-12-20T05:32:00;90874.28;;;1.87;86.27
69909;BME280;57190;47.918;8.112;2023-12-20T05:34:25;90882.47;;;1.98;86.88
69909;BME280;57190;47.918;8.112;2023-12-20T05:36:51;90887.91;;;2.03;87.13
69909;BME280;57190;47.918;8.112;2023-12-20T05:39:16;90880.16;;;2.08;86.85
69909;BME280;57190;47.918;8.112;2023-12-20T05:41:42;90879.91;;;2.16;87.29
69909;BME280;57190;47.918;8.112;2023-12-20T05:44:07;90888.00;;;2.15;87.79
69909;BME280;57190;47.918;8.112;2023-12-20T05:46:33;90892.03;;;2.17;88.08
69909;BME280;57190;47.918;8.112;2023-12-20T05:49:10;90895.03;;;2.21;88.18
69909;BME280;57190;47.918;8.112;2023-12-20T05:51:36;90897.25;;;2.24;87.94
69909;BME280;57190;47.918;8.112;2023-12-20T05:54:01;90902.88;;;2.28;87.88
69909;BME280;57190;47.918;8.112;2023-12-20T05:56:27;90890.31;;;2.30;87.53
69909;BME280;57190;47.918;8.112;2023-12-20T05:58:52;90891.34;;;2.29;88.27
69909;BME280;57190;47.918;8.112;2023-12-20T06:01:18;90899.22;;;2.29;89.01
69909;BME280;57190;47.918;8.112;2023-12-20T06:03:43;90900.03;;;2.29;88.70
69909;BME280;57190;47.918;8.112;2023-12-20T06:06:09;90899.22;;;2.29;88.72
69909;BME280;57190;47.918;8.112;2023-12-20T06:08:36;90900.84;;;2.30;88.45
69909;BME280;57190;47.918;8.112;2023-12-20T06:11:01;90901.63;;;2.30;89.68
69909;BME280;57190;47.918;8.112;2023-12-20T06:13:27;90901.63;;;2.30;88.63
69909;BME280;57190;47.918;8.112;2023-12-20T06:15:54;90899.00;;;2.30;88.90
69909;BME280;57190;47.918;8.112;2023-12-20T06:18:20;90912.16;;;2.30;89.55
69909;BME280;57190;47.918;8.112;2023-12-20T06:20:45;90910.56;;;2.29;88.50
69909;BME280;57190;47.918;8.112;2023-12-20T06:23:11;90920.84;;;2.31;89.37
69909;BME280;57190;47.918;8.112;2023-12-20T06:25:36;90917.59;;;2.35;88.61
69909;BME280;57190;47.918;8.112;2023-12-20T06:28:02;90923.66;;;2.36;88.34
69909;BME280;57190;47.918;8.112;2023-12-20T06:30:27;90921.03;;;2.36;88.95
69909;BME280;57190;47.918;8.112;2023-12-20T06:32:54;90932.34;;;2.36;89.34
69909;BME280;57190;47.918;8.112;2023-12-20T06:35:20;90924.09;;;2.33;89.25
69909;BME280;57190;47.918;8.112;2023-12-20T06:37:45;90936.00;;;2.35;89.58
69909;BME280;57190;47.918;8.112;2023-12-20T06:40:11;90936.19;;;2.41;88.57
69909;BME280;57190;47.918;8.112;2023-12-20T06:42:37;90938.38;;;2.44;89.39
69909;BME280;57190;47.918;8.112;2023-12-20T06:45:03;90937.72;;;2.48;88.94
69909;BME280;57190;47.918;8.112;2023-12-20T06:47:29;90938.53;;;2.49;88.57
69909;BME280;57190;47.918;8.112;2023-12-20T06:49:54;90944.03;;;2.47;88.71
69909;BME280;57190;47.918;8.112;2023-12-20T06:52:19;90946.44;;;2.49;88.45
69909;BME280;57190;47.918;8.112;2023-12-20T06:54:45;90940.59;;;2.47;88.68
69909;BME280;57190;47.918;8.112;2023-12-20T06:57:10;90953.75;;;2.47;88.78
69909;BME280;57190;47.918;8.112;2023-12-20T06:59:42;90963.50;;;2.46;88.60
69909;BME280;57190;47.918;8.112;2023-12-20T07:02:08;90960.69;;;2.41;89.38
69909;BME280;57190;47.918;8.112;2023-12-20T07:04:35;90958.03;;;2.41;89.34
69909;BME280;57190;47.918;8.112;2023-12-20T07:07:13;90950.16;;;2.41;88.97
69909;BME280;57190;47.918;8.112;2023-12-20T07:09:41;90956.66;;;2.39;89.42
69909;BME280;57190;47.918;8.112;2023-12-20T07:12:08;90964.69;;;2.44;88.84
69909;BME280;57190;47.918;8.112;2023-12-20T07:14:37;90969.78;;;2.45;89.33
69909;BME280;57190;47.918;8.112;2023-12-20T07:17:33;90968.16;;;2.44;88.99
69909;BME280;57190;47.918;8.112;2023-12-20T07:19:59;90969.19;;;2.43;88.79
69909;BME280;57190;47.918;8.112;2023-12-20T07:22:49;90972.22;;;2.40;89.03
69909;BME280;57190;47.918;8.112;2023-12-20T07:25:18;90973.66;;;2.43;88.53
69909;BME280;57190;47.918;8.112;2023-12-20T07:27:43;90974.47;;;2.36;89.41
69909;BME280;57190;47.918;8.112;2023-12-20T07:30:09;90977.34;;;2.35;88.95
69909;BME280;57190;47.918;8.112;2023-12-20T07:32:35;90989.50;;;2.36;89.21
69909;BME280;57190;47.918;8.112;2023-12-20T07:35:00;90986.84;;;2.36;88.78
69909;BME280;57190;47.918;8.112;2023-12-20T07:37:26;90997.75;;;2.40;88.96
69909;BME280;57190;47.918;8.112;2023-12-20T07:39:51;91003.81;;;2.40;88.58
69909;BME280;57190;47.918;8.112;2023-12-20T07:42:17;91005.88;;;2.38;87.98
69909;BME280;57190;47.918;8.112;2023-12-20T07:44:42;91011.34;;;2.36;88.54
69909;BME280;57190;47.918;8.112;2023-12-20T07:47:08;91005.88;;;2.38;88.53
69909;BME280;57190;47.918;8.112;2023-12-20T07:49:33;90999.59;;;2.39;88.78
69909;BME280;57190;47.918;8.112;2023-12-20T07:51:59;90988.63;;;2.42;88.00
69909;BME280;57190;47.918;8.112;2023-12-20T07:54:24;91006.91;;;2.37;88.37
69909;BME280;57190;47.918;8.112;2023-12-20T07:56:49;91003.25;;;2.38;88.94
69909;BME280;57190;47.918;8.112;2023-12-20T07:59:15;91005.66;;;2.40;88.99
69909;BME280;57190;47.918;8.112;2023-12-20T08:01:40;91005.50;;;2.34;88.55
69909;BME280;57190;47.918;8.112;2023-12-20T08:04:07;91015.44;;;2.32;88.43
69909;BME280;57190;47.918;8.112;2023-12-20T08:06:32;91018.66;;;2.34;89.75
69909;BME280;57190;47.918;8.112;2023-12-20T08:08:58;91016.22;;;2.33;88.84
69909;BME280;57190;47.918;8.112;2023-12-20T08:11:24;91014.03;;;2.30;89.25
69909;BME280;57190;47.918;8.112;2023-12-20T08:13:49;91016.59;;;2.36;88.67
69909;BME280;57190;47.918;8.112;2023-12-20T08:16:15;91018.47;;;2.29;89.82
69909;BME280;57190;47.918;8.112;2023-12-20T08:18:42;91018.47;;;2.29;89.52
69909;BME280;57190;47.918;8.112;2023-12-20T08:21:08;91012.81;;;2.32;90.15
69909;BME280;57190;47.918;8.112;2023-12-20T08:23:34;91017.84;;;2.34;89.86
69909;BME280;57190;47.918;8.112;2023-12-20T08:26:04;91019.41;;;2.42;90.22
69909;BME280;57190;47.918;8.112;2023-12-20T08:28:30;91013.94;;;2.43;89.65
69909;BME280;57190;47.918;8.112;2023-12-20T08:30:56;91013.34;;;2.41;89.36
69909;BME280;57190;47.918;8.112;2023-12-20T08:33:21;91021.47;;;2.40;90.44
69909;BME280;57190;47.918;8.112;2023-12-20T08:35:47;91019.41;;;2.42;89.82
69909;BME280;57190;47.918;8.112;2023-12-20T08:38:12;91016.97;;;2.40;89.86
69909;BME280;57190;47.918;8.112;2023-12-20T08:40:38;91015.78;;;2.43;89.75
69909;BME280;57190;47.918;8.112;2023-12-20T08:43:03;91013.56;;;2.40;89.63
69909;BME280;57190;47.918;8.112;2023-12-20T08:45:29;91023.03;;;2.47;89.93
69909;BME280;57190;47.918;8.112;2023-12-20T08:47:54;91023.66;;;2.43;89.57
69909;BME280;57190;47.918;8.112;2023-12-20T08:50:20;91027.09;;;2.43;89.93
69909;BME280;57190;47.918;8.112;2023-12-20T08:52:45;91031.94;;;2.46;89.41
69909;BME280;57190;47.918;8.112;2023-12-20T08:55:10;91041.47;;;2.47;89.72
69909;BME280;57190;47.918;8.112;2023-12-20T08:57:36;91039.03;;;2.46;89.13
69909;BME280;57190;47.918;8.112;2023-12-20T09:00:02;91032.75;;;2.47;89.93
69909;BME280;57190;47.918;8.112;2023-12-20T09:02:28;91025.66;;;2.47;89.83
69909;BME280;57190;47.918;8.112;2023-12-20T09:04:54;91021.97;;;2.48;89.33
69909;BME280;57190;47.918;8.112;2023-12-20T09:07:26;91029.88;;;2.48;89.03
69909;BME280;57190;47.918;8.112;2023-12-20T09:09:53;91019.56;;;2.47;88.28
69909;BME280;57190;47.918;8.112;2023-12-20T09:12:19;91021.03;;;2.43;88.84
69909;BME280;57190;47.918;8.112;2023-12-20T09:14:46;91030.31;;;2.45;88.24
69909;BME280;57190;47.918;8.112;2023-12-20T09:17:12;91031.75;;;2.41;89.07
69909;BME280;57190;47.918;8.112;2023-12-20T09:19:38;91028.13;;;2.42;88.64
69909;BME280;57190;47.918;8.112;2023-12-20T09:22:04;91027.31;;;2.42;89.05
69909;BME280;57190;47.918;8.112;2023-12-20T09:24:30;91035.41;;;2.40;88.32
69909;BME280;57190;47.918;8.112;2023-12-20T09:26:56;91033.41;;;2.35;88.62
69909;BME280;57190;47.918;8.112;2023-12-20T09:29:21;91048.03;;;2.31;88.54
69909;BME280;57190;47.918;8.112;2023-12-20T09:31:46;91044.81;;;2.29;88.83
69909;BME280;57190;47.918;8.112;2023-12-20T09:34:15;91057.75;;;2.31;88.26
69909;BME280;57190;47.918;8.112;2023-12-20T09:36:41;91061.63;;;2.28;88.21
69909;BME280;57190;47.918;8.112;2023-12-20T09:39:12;91064.69;;;2.25;87.57
69909;BME280;57190;47.918;8.112;2023-12-20T09:41:44;91067.34;;;2.18;86.76
69909;BME280;57190;47.918;8.112;2023-12-20T09:44:14;91071.47;;;2.08;86.66
69909;BME280;57190;47.918;8.112;2023-12-20T09:46:44;91078.78;;;1.99;86.38
69909;BME280;57190;47.918;8.112;2023-12-20T09:49:11;91079.22;;;1.96;86.98
69909;BME280;57190;47.918;8.112;2023-12-20T09:51:38;91072.75;;;1.92;85.80
69909;BME280;57190;47.918;8.112;2023-12-20T09:54:04;91069.88;;;2.00;85.96
69909;BME280;57190;47.918;8.112;2023-12-20T09:56:30;91062.59;;;2.02;85.65
69909;BME280;57190;47.918;8.112;2023-12-20T09:58:56;91058.72;;;2.04;85.22
69909;BME280;57190;47.918;8.112;2023-12-20T10:01:22;91052.66;;;2.04;85.26
69909;BME280;57190;47.918;8.112;2023-12-20T10:03:51;91048.22;;;1.98;84.63
69909;BME280;57190;47.918;8.112;2023-12-20T10:06:19;91053.69;;;2.03;84.73
69909;BME280;57190;47.918;8.112;2023-12-20T10:08:44;91054.31;;;1.98;85.09
69909;BME280;57190;47.918;8.112;2023-12-20T10:11:10;91046.56;;;2.03;84.95
69909;BME280;57190;47.918;8.112;2023-12-20T10:13:42;91044.16;;;2.02;84.67
69909;BME280;57190;47.918;8.112;2023-12-20T10:16:07;91034.28;;;1.91;85.39
69909;BME280;57190;47.918;8.112;2023-12-20T10:18:33;91033.03;;;2.00;85.22
69909;BME280;57190;47.918;8.112;2023-12-20T10:20:59;91024.84;;;1.83;85.09
69909;BME280;57190;47.918;8.112;2023-12-20T10:23:25;91030.50;;;1.80;85.93
69909;BME280;57190;47.918;8.112;2023-12-20T10:26:00;91029.28;;;1.82;85.66
69909;BME280;57190;47.918;8.112;2023-12-20T10:28:26;91030.28;;;1.81;85.29
69909;BME280;57190;47.918;8.112;2023-12-20T10:30:55;91029.09;;;1.84;85.67
69909;BME280;57190;47.918;8.112;2023-12-20T10:33:27;91025.25;;;1.80;85.35
69909;BME280;57190;47.918;8.112;2023-12-20T10:35:54;91029.75;;;1.72;85.37
69909;BME280;57190;47.918;8.112;2023-12-20T10:38:20;91020.63;;;1.75;85.97
69909;BME280;57190;47.918;8.112;2023-12-20T10:40:46;91027.88;;;1.80;85.74
69909;BME280;57190;47.918;8.112;2023-12-20T10:43:12;91018.19;;;1.80;85.58
69909;BME280;57190;47.918;8.112;2023-12-20T10:45:38;91014.75;;;1.73;86.34
69909;BME280;57190;47.918;8.112;2023-12-20T10:48:04;91009.50;;;1.73;86.68
69909;BME280;57190;47.918;8.112;2023-12-20T10:50:30;91009.09;;;1.69;86.74
69909;BME280;57190;47.918;8.112;2023-12-20T10:52:57;91008.69;;;1.72;86.33
69909;BME280;57190;47.918;8.112;2023-12-20T10:55:23;90990.91;;;1.75;85.64
69909;BME280;57190;47.918;8.112;2023-12-20T10:58:00;91011.56;;;1.64;86.69
69909;BME280;57190;47.918;8.112;2023-12-20T11:00:25;91007.53;;;1.62;86.81
69909;BME280;57190;47.918;8.112;2023-12-20T11:02:51;91009.34;;;1.61;86.58
69909;BME280;57190;47.918;8.112;2023-12-20T11:05:40;91002.31;;;1.55;86.78
69909;BME280;57190;47.918;8.112;2023-12-20T11:08:17;91003.94;;;1.49;86.37
69909;BME280;57190;47.918;8.112;2023-12-20T11:11:08;91002.31;;;1.48;86.22
69909;BME280;57190;47.918;8.112;2023-12-20T11:13:48;91004.97;;;1.48;86.33
69909;BME280;57190;47.918;8.112;2023-12-20T11:16:19;91004.94;;;1.55;85.65
69909;BME280;57190;47.918;8.112;2023-12-20T11:18:45;91002.31;;;1.48;85.36
69909;BME280;57190;47.918;8.112;2023-12-20T11:21:10;91003.31;;;1.54;85.39
69909;BME280;57190;47.918;8.112;2023-12-20T11:23:36;91008.56;;;1.61;85.61
69909;BME280;57190;47.918;8.112;2023-12-20T11:26:02;91003.91;;;1.63;85.13
69909;BME280;57190;47.918;8.112;2023-12-20T11:28:28;91007.09;;;1.65;84.03
69909;BME280;57190;47.918;8.112;2023-12-20T11:30:56;91004.53;;;1.58;84.12
69909;BME280;57190;47.918;8.112;2023-12-20T11:33:36;91001.06;;;1.57;84.08
69909;BME280;57190;47.918;8.112;2023-12-20T11:36:03;91006.94;;;1.60;83.95
69909;BME280;57190;47.918;8.112;2023-12-20T11:38:37;91005.09;;;1.67;84.13
69909;BME280;57190;47.918;8.112;2023-12-20T11:41:05;91006.88;;;1.73;83.61
69909;BME280;57190;47.918;8.112;2023-12-20T11:43:38;91009.69;;;1.78;83.10
69909;BME280;57190;47.918;8.112;2023-12-20T11:46:05;90999.34;;;1.83;82.54
69909;BME280;57190;47.918;8.112;2023-12-20T11:48:31;90996.31;;;1.80;82.63
69909;BME280;57190;47.918;8.112;2023-12-20T11:50:57;91003.81;;;1.76;81.78
69909;BME280;57190;47.918;8.112;2023-12-20T11:53:22;91007.84;;;1.79;82.54
69909;BME280;57190;47.918;8.112;2023-12-20T11:55:49;91001.19;;;1.76;81.74
69909;BME280;57190;47.918;8.112;2023-12-20T11:58:14;91008.28;;;1.76;82.12
69909;BME280;57190;47.918;8.112;2023-12-20T12:00:42;90992.44;;;1.89;81.83
69909;BME280;57190;47.918;8.112;2023-12-20T12:03:09;90993.28;;;1.83;81.03
69909;BME280;57190;47.918;8.112;2023-12-20T12:05:35;91001.34;;;1.81;81.85
69909;BME280;57190;47.918;8.112;2023-12-20T12:08:02;90994.91;;;1.77;81.80
69909;BME280;57190;47.918;8.112;2023-12-20T12:10:28;90993.28;;;1.83;81.58
69909;BME280;57190;47.918;8.112;2023-12-20T12:12:54;90998.16;;;1.79;80.37
69909;BME280;57190;47.918;8.112;2023-12-20T12:15:19;90997.16;;;1.80;80.44
69909;BME280;57190;47.918;8.112;2023-12-20T12:17:52;90991.47;;;1.77;80.29
69909;BME280;57190;47.918;8.112;2023-12-20T12:20:19;90987.41;;;1.81;80.58
69909;BME280;57190;47.918;8.112;2023-12-20T12:22:45;90994.06;;;1.83;81.06
69909;BME280;57190;47.918;8.112;2023-12-20T12:25:13;90997.84;;;1.94;80.46
69909;BME280;57190;47.918;8.112;2023-12-20T12:27:40;91001.56;;;1.86;80.85
69909;BME280;57190;47.918;8.112;2023-12-20T12:30:06;90997.06;;;1.94;80.99
69909;BME280;57190;47.918;8.112;2023-12-20T12:32:36;90999.72;;;1.87;81.40
69909;BME280;57190;47.918;8.112;2023-12-20T12:35:04;90996.91;;;1.88;80.95
69909;BME280;57190;47.918;8.112;2023-12-20T12:37:34;90991.88;;;1.80;81.25
69909;BME280;57190;47.918;8.112;2023-12-20T12:40:00;90992.69;;;1.74;81.67
69909;BME280;57190;47.918;8.112;2023-12-20T12:42:26;90989.53;;;1.65;81.31
69909;BME280;57190;47.918;8.112;2023-12-20T12:44:54;90999.06;;;1.60;81.62
69909;BME280;57190;47.918;8.112;2023-12-20T12:47:20;91001.91;;;1.58;81.35
69909;BME280;57190;47.918;8.112;2023-12-20T12:49:46;91008.19;;;1.50;81.21
69909;BME280;57190;47.918;8.112;2023-12-20T12:52:11;91007.59;;;1.48;81.79
69909;BME280;57190;47.918;8.112;2023-12-20T12:54:37;91015.28;;;1.50;82.51
69909;BME280;57190;47.918;8.112;2023-12-20T12:57:02;91015.53;;;1.41;82.36
69909;BME280;57190;47.918;8.112;2023-12-20T12:59:28;91011.22;;;1.47;81.88
69909;BME280;57190;47.918;8.112;2023-12-20T13:01:53;91009.63;;;1.46;81.99
69909;BME280;57190;47.918;8.112;2023-12-20T13:04:19;90998.75;;;1.36;82.15
69909;BME280;57190;47.918;8.112;2023-12-20T13:06:44;91003.19;;;1.35;81.89
69909;BME280;57190;47.918;8.112;2023-12-20T13:09:10;90997.97;;;1.29;81.74
69909;BME280;57190;47.918;8.112;2023-12-20T13:11:35;91002.78;;;1.32;81.73
69909;BME280;57190;47.918;8.112;2023-12-20T13:14:01;90995.91;;;1.31;82.25
69909;BME280;57190;47.918;8.112;2023-12-20T13:16:26;90995.53;;;1.27;81.86
69909;BME280;57190;47.918;8.112;2023-12-20T13:18:52;90989.88;;;1.30;81.86
69909;BME280;57190;47.918;8.112;2023-12-20T13:21:17;91000.31;;;1.44;81.98
69909;BME280;57190;47.918;8.112;2023-12-20T13:23:43;91003.91;;;1.63;81.52